Time,TemperatureF,DewpointF,PressureIn,WindDirection,WindDirectionDegrees,WindSpeedMPH,WindSpeedGustMPH,Humidity,HourlyPrecipIn,Conditions,Clouds,dailyrainin,SoftwareType,DateUTC
2013-05-14 00:11:00,56.6,37.0,29.99,South,175,0.0,-999.0,49,-99.99,,,0.00,weatherlink.com 1.10,2013-05-14 05:11:00,
2013-05-14 00:26:00,55.8,38.0,29.98,South,179,0.0,-999.0,51,-99.99,,,0.00,weatherlink.com 1.10,2013-05-14 05:26:00,
2013-05-14 00:41:00,55.0,38.0,29.98,South,178,0.0,-999.0,53,-99.99,,,0.00,weatherlink.com 1.10,2013-05-14 05:41:00,
2013-05-14 00:56:00,54.9,39.0,29.96,South,179,0.0,-999.0,55,-99.99,,,0.00,weatherlink.com 1.10,2013-05-14 05:56:00,
2013-05-14 01:11:00,55.6,40.0,29.96,SSW,192,0.0,-999.0,56,-99.99,,,0.00,weatherlink.com 1.10,2013-05-14 06:11:00,
2013-05-14 01:26:00,56.1,40.0,29.95,SSW,208,0.0,-999.0,56,-99.99,,,0.00,weatherlink.com 1.10,2013-05-14 06:26:00,
2013-05-14 01:41:00,56.1,41.0,29.94,SSW,209,0.0,-999.0,57,-99.99,,,0.00,weatherlink.com 1.10,2013-05-14 06:41:00,
2013-05-14 01:56:00,56.3,41.0,29.93,SSW,212,0.0,-999.0,57,-99.99,,,0.00,weatherlink.com 1.10,2013-05-14 06:56:00,
2013-05-14 02:11:00,56.3,41.0,29.93,SSW,211,0.0,-999.0,56,-99.99,,,0.00,weatherlink.com 1.10,2013-05-14 07:11:00,
2013-05-14 02:26:00,56.3,40.0,29.92,SSW,199,0.0,-999.0,55,-99.99,,,0.00,weatherlink.com 1.10,2013-05-14 07:26:00,
2013-05-14 02:41:00,55.5,40.0,29.91,SSW,196,0.0,-999.0,57,-99.99,,,0.00,weatherlink.com 1.10,2013-05-14 07:41:00,
2013-05-14 02:56:00,55.2,40.0,29.91,SSW,203,0.0,-999.0,57,-99.99,,,0.00,weatherlink.com 1.10,2013-05-14 07:56:00,
2013-05-14 03:11:00,55.1,40.0,29.91,South,172,0.0,-999.0,57,-99.99,,,0.00,weatherlink.com 1.10,2013-05-14 08:11:00,
2013-05-14 03:26:00,55.0,40.0,29.90,South,190,0.0,-999.0,57,-99.99,,,0.00,weatherlink.com 1.10,2013-05-14 08:26:00,
2013-05-14 03:41:00,54.8,40.0,29.90,SW,217,0.0,-999.0,57,-99.99,,,0.00,weatherlink.com 1.10,2013-05-14 08:41:00,
2013-05-14 03:56:00,54.8,40.0,29.89,SSW,197,0.0,-999.0,57,-99.99,,,0.00,weatherlink.com 1.10,2013-05-14 08:56:00,
2013-05-14 04:11:00,54.7,40.0,29.88,South,182,0.0,-999.0,58,-99.99,,,0.00,weatherlink.com 1.10,2013-05-14 09:11:00,
2013-05-14 04:26:00,54.6,40.0,29.88,South,182,0.0,-999.0,58,-99.99,,,0.00,weatherlink.com 1.10,2013-05-14 09:26:00,
2013-05-14 04:56:00,55.5,42.0,29.86,SSW,202,0.0,-999.0,60,-99.99,,,0.00,weatherlink.com 1.10,2013-05-14 09:56:00,
2013-05-14 05:11:00,55.4,42.0,29.86,SSW,208,0.0,-999.0,61,-99.99,,,0.00,weatherlink.com 1.10,2013-05-14 10:11:00,
2013-05-14 05:26:00,55.2,42.0,29.85,SW,221,0.0,-999.0,62,-99.99,,,0.00,weatherlink.com 1.10,2013-05-14 10:26:00,
2013-05-14 05:41:00,55.0,43.0,29.85,SW,215,0.0,-999.0,64,-99.99,,,0.00,weatherlink.com 1.10,2013-05-14 10:41:00,
2013-05-14 05:56:00,54.8,43.0,29.84,SW,217,0.0,-999.0,65,-99.99,,,0.00,weatherlink.com 1.10,2013-05-14 10:56:00,
2013-05-14 06:11:00,54.8,44.0,29.84,SSW,213,0.0,-999.0,67,-99.99,,,0.00,weatherlink.com 1.10,2013-05-14 11:11:00,
2013-05-14 06:26:00,55.3,44.0,29.83,South,190,0.0,-999.0,67,-99.99,,,0.00,weatherlink.com 1.10,2013-05-14 11:26:00,
2013-05-14 06:41:00,55.9,45.0,29.82,SSW,207,0.0,-999.0,67,-99.99,,,0.00,weatherlink.com 1.10,2013-05-14 11:41:00,
2013-05-14 06:56:00,56.8,46.0,29.82,SW,215,0.0,-999.0,67,-99.99,,,0.00,weatherlink.com 1.10,2013-05-14 11:56:00,
2013-05-14 07:11:00,58.0,47.0,29.81,SW,236,0.0,-999.0,66,-99.99,,,0.00,weatherlink.com 1.10,2013-05-14 12:11:00,
2013-05-14 07:26:00,59.5,48.0,29.80,SW,233,0.0,-999.0,65,-99.99,,,0.00,weatherlink.com 1.10,2013-05-14 12:26:00,
2013-05-14 07:41:00,61.1,48.0,29.80,SW,226,0.0,-999.0,63,-99.99,,,0.00,weatherlink.com 1.10,2013-05-14 12:41:00,
2013-05-14 07:56:00,62.6,49.0,29.81,SW,228,0.0,-999.0,61,-99.99,,,0.00,weatherlink.com 1.10,2013-05-14 12:56:00,
2013-05-14 08:11:00,63.7,50.0,29.80,West,263,0.0,-999.0,61,-99.99,,,0.00,weatherlink.com 1.10,2013-05-14 13:11:00,
2013-05-14 08:26:00,65.5,51.0,29.80,SW,234,0.0,-999.0,60,-99.99,,,0.00,weatherlink.com 1.10,2013-05-14 13:26:00,
2013-05-14 08:41:00,67.3,51.0,29.79,West,259,0.0,-999.0,57,-99.99,,,0.00,weatherlink.com 1.10,2013-05-14 13:41:00,
2013-05-14 08:56:00,67.9,51.0,29.78,West,267,0.0,-999.0,56,-99.99,,,0.00,weatherlink.com 1.10,2013-05-14 13:56:00,
2013-05-14 09:11:00,69.0,52.0,29.78,West,265,0.0,-999.0,56,-99.99,,,0.00,weatherlink.com 1.10,2013-05-14 14:11:00,
2013-05-14 09:26:00,69.9,53.0,29.78,West,271,0.0,-999.0,55,-99.99,,,0.00,weatherlink.com 1.10,2013-05-14 14:26:00,
2013-05-14 09:41:00,70.7,54.0,29.78,West,276,0.0,-999.0,55,-99.99,,,0.00,weatherlink.com 1.10,2013-05-14 14:41:00,
2013-05-14 09:56:00,72.2,54.0,29.78,West,275,0.0,-999.0,53,-99.99,,,0.00,weatherlink.com 1.10,2013-05-14 14:56:00,
2013-05-14 10:11:00,73.5,55.0,29.77,WNW,285,0.0,-999.0,53,-99.99,,,0.00,weatherlink.com 1.10,2013-05-14 15:11:00,
2013-05-14 10:26:00,74.4,56.0,29.77,West,269,0.0,-999.0,52,-99.99,,,0.00,weatherlink.com 1.10,2013-05-14 15:26:00,
2013-05-14 10:41:00,75.5,55.0,29.76,WNW,290,0.0,-999.0,50,-99.99,,,0.00,weatherlink.com 1.10,2013-05-14 15:41:00,
2013-05-14 10:56:00,76.8,57.0,29.76,NW,319,0.0,-999.0,50,-99.99,,,0.00,weatherlink.com 1.10,2013-05-14 15:56:00,
2013-05-14 11:11:00,77.5,57.0,29.76,West,279,0.0,-999.0,49,-99.99,,,0.00,weatherlink.com 1.10,2013-05-14 16:11:00,
2013-05-14 11:26:00,78.4,57.0,29.75,WNW,294,0.0,-999.0,48,-99.99,,,0.00,weatherlink.com 1.10,2013-05-14 16:26:00,
2013-05-14 11:41:00,79.1,57.0,29.75,West,276,0.0,-999.0,47,-99.99,,,0.00,weatherlink.com 1.10,2013-05-14 16:41:00,
2013-05-14 11:56:00,80.4,58.0,29.74,West,269,0.0,-999.0,46,-99.99,,,0.00,weatherlink.com 1.10,2013-05-14 16:56:00,
2013-05-14 12:11:00,81.1,58.0,29.75,West,275,0.0,-999.0,45,-99.99,,,0.00,weatherlink.com 1.10,2013-05-14 17:11:00,
2013-05-14 12:26:00,82.3,58.0,29.75,West,271,0.0,-999.0,43,-99.99,,,0.00,weatherlink.com 1.10,2013-05-14 17:26:00,
2013-05-14 12:41:00,83.1,60.0,29.74,WNW,283,0.0,-999.0,45,-99.99,,,0.00,weatherlink.com 1.10,2013-05-14 17:41:00,
2013-05-14 12:56:00,83.3,59.0,29.74,WNW,296,0.0,-999.0,44,-99.99,,,0.01,weatherlink.com 1.10,2013-05-14 17:56:00,
2013-05-14 13:11:00,84.4,59.0,29.74,West,275,0.0,-999.0,42,-99.99,,,0.02,weatherlink.com 1.10,2013-05-14 18:11:00,
2013-05-14 13:26:00,85.2,60.0,29.73,West,279,0.0,-999.0,42,-99.99,,,0.03,weatherlink.com 1.10,2013-05-14 18:26:00,
2013-05-14 13:41:00,85.7,59.0,29.73,West,272,0.0,-999.0,40,-99.99,,,0.03,weatherlink.com 1.10,2013-05-14 18:41:00,
2013-05-14 13:56:00,86.5,57.0,29.73,NNW,330,0.0,-999.0,37,-99.99,,,0.03,weatherlink.com 1.10,2013-05-14 18:56:00,
2013-05-14 14:11:00,87.6,57.0,29.73,NW,317,0.0,-999.0,36,-99.99,,,0.04,weatherlink.com 1.10,2013-05-14 19:11:00,
2013-05-14 14:26:00,88.3,61.0,29.72,NW,313,10.0,-999.0,40,-99.99,,,0.04,weatherlink.com 1.10,2013-05-14 19:26:00,
2013-05-14 14:41:00,89.2,56.0,29.72,NW,317,8.0,-999.0,32,-99.99,,,0.04,weatherlink.com 1.10,2013-05-14 19:41:00,
2013-05-14 14:56:00,90.1,56.0,29.71,NW,310,10.0,-999.0,32,-99.99,,,0.04,weatherlink.com 1.10,2013-05-14 19:56:00,
2013-05-14 15:11:00,90.3,58.0,29.70,WSW,246,1.0,-999.0,34,-99.99,,,0.04,weatherlink.com 1.10,2013-05-14 20:11:00,
2013-05-14 15:26:00,90.4,55.0,29.70,WNW,290,8.0,-999.0,30,-99.99,,,0.04,weatherlink.com 1.10,2013-05-14 20:26:00,
2013-05-14 15:41:00,90.8,56.0,29.70,West,277,4.0,-999.0,31,-99.99,,,0.04,weatherlink.com 1.10,2013-05-14 20:41:00,
2013-05-14 15:56:00,91.4,54.0,29.70,West,275,6.0,-999.0,28,-99.99,,,0.04,weatherlink.com 1.10,2013-05-14 20:56:00,
2013-05-14 16:11:00,91.9,54.0,29.70,NW,318,9.0,-999.0,28,-99.99,,,0.04,weatherlink.com 1.10,2013-05-14 21:11:00,
2013-05-14 16:26:00,92.3,51.0,29.70,WNW,292,4.0,-999.0,24,-99.99,,,0.04,weatherlink.com 1.10,2013-05-14 21:26:00,
2013-05-14 16:41:00,92.4,54.0,29.70,NNW,344,10.0,-999.0,27,-99.99,,,0.04,weatherlink.com 1.10,2013-05-14 21:41:00,
2013-05-14 16:56:00,92.6,52.0,29.70,NW,308,4.0,-999.0,25,-99.99,,,0.04,weatherlink.com 1.10,2013-05-14 21:56:00,
2013-05-14 17:11:00,92.6,51.0,29.69,West,259,0.0,-999.0,24,-99.99,,,0.04,weatherlink.com 1.10,2013-05-14 22:11:00,
2013-05-14 17:26:00,92.7,52.0,29.68,West,273,2.0,-999.0,25,-99.99,,,0.04,weatherlink.com 1.10,2013-05-14 22:26:00,
2013-05-14 17:41:00,92.4,52.0,29.67,SW,217,7.0,-999.0,25,-99.99,,,0.04,weatherlink.com 1.10,2013-05-14 22:41:00,
2013-05-14 17:56:00,92.1,52.0,29.66,WSW,246,2.0,-999.0,25,-99.99,,,0.04,weatherlink.com 1.10,2013-05-14 22:56:00,
2013-05-14 18:11:00,92.2,49.0,29.66,SW,227,2.0,-999.0,23,-99.99,,,0.04,weatherlink.com 1.10,2013-05-14 23:11:00,
2013-05-14 18:26:00,92.0,51.0,29.65,SW,221,6.0,-999.0,25,-99.99,,,0.04,weatherlink.com 1.10,2013-05-14 23:26:00,
2013-05-14 18:41:00,91.7,51.0,29.65,WNW,296,2.0,-999.0,25,-99.99,,,0.04,weatherlink.com 1.10,2013-05-14 23:41:00,
2013-05-14 18:56:00,90.6,54.0,29.64,SW,219,12.0,-999.0,29,-99.99,,,0.04,weatherlink.com 1.10,2013-05-14 23:56:00,
2013-05-14 19:11:00,89.1,56.0,29.64,SW,230,10.0,-999.0,32,-99.99,,,0.04,weatherlink.com 1.10,2013-05-15 00:11:00,
2013-05-14 19:26:00,88.5,55.0,29.64,SW,225,9.0,-999.0,32,-99.99,,,0.04,weatherlink.com 1.10,2013-05-15 00:26:00,
2013-05-14 19:41:00,87.3,56.0,29.64,SW,223,8.0,-999.0,35,-99.99,,,0.04,weatherlink.com 1.10,2013-05-15 00:41:00,
2013-05-14 19:56:00,85.6,57.0,29.64,SSW,208,10.0,-999.0,38,-99.99,,,0.04,weatherlink.com 1.10,2013-05-15 00:56:00,
2013-05-14 20:11:00,82.7,57.0,29.64,SSW,206,9.0,-999.0,41,-99.99,,,0.04,weatherlink.com 1.10,2013-05-15 01:11:00,
2013-05-14 20:26:00,81.2,58.0,29.64,SW,221,10.0,-999.0,45,-99.99,,,0.04,weatherlink.com 1.10,2013-05-15 01:26:00,
2013-05-14 20:41:00,81.4,60.0,29.65,SW,220,10.0,-999.0,48,-99.99,,,0.04,weatherlink.com 1.10,2013-05-15 01:41:00,
2013-05-14 20:56:00,81.4,60.0,29.65,WSW,244,10.0,-999.0,48,-99.99,,,0.04,weatherlink.com 1.10,2013-05-15 01:56:00,
2013-05-14 21:11:00,80.7,60.0,29.66,SW,223,12.0,-999.0,49,-99.99,,,0.04,weatherlink.com 1.10,2013-05-15 02:11:00,
2013-05-14 21:26:00,79.7,60.0,29.66,SW,224,11.0,-999.0,51,-99.99,,,0.04,weatherlink.com 1.10,2013-05-15 02:26:00,
2013-05-14 21:41:00,78.5,60.0,29.66,WSW,238,9.0,-999.0,54,-99.99,,,0.04,weatherlink.com 1.10,2013-05-15 02:41:00,
2013-05-14 21:56:00,78.1,59.0,29.67,SSW,211,5.0,-999.0,53,-99.99,,,0.04,weatherlink.com 1.10,2013-05-15 02:56:00,
2013-05-14 22:11:00,77.6,59.0,29.66,SW,232,11.0,-999.0,53,-99.99,,,0.04,weatherlink.com 1.10,2013-05-15 03:11:00,
2013-05-14 22:26:00,76.5,59.0,29.66,WSW,248,0.0,-999.0,54,-99.99,,,0.04,weatherlink.com 1.10,2013-05-15 03:26:00,
2013-05-14 22:41:00,75.9,58.0,29.66,SW,218,0.0,-999.0,55,-99.99,,,0.04,weatherlink.com 1.10,2013-05-15 03:41:00,
2013-05-14 22:56:00,75.9,58.0,29.64,SW,223,0.0,-999.0,54,-99.99,,,0.04,weatherlink.com 1.10,2013-05-15 03:56:00,
2013-05-14 23:11:00,76.2,58.0,29.64,SW,229,0.0,-999.0,53,-99.99,,,0.04,weatherlink.com 1.10,2013-05-15 04:11:00,
2013-05-14 23:26:00,77.0,57.0,29.65,West,265,0.0,-999.0,51,-99.99,,,0.04,weatherlink.com 1.10,2013-05-15 04:26:00,
2013-05-14 23:41:00,77.5,57.0,29.65,WNW,284,0.0,-999.0,50,-99.99,,,0.04,weatherlink.com 1.10,2013-05-15 04:41:00,
2013-05-14 23:56:00,77.4,57.0,29.66,WNW,284,0.0,-999.0,50,-99.99,,,0.04,weatherlink.com 1.10,2013-05-15 04:56:00,